sensor_id;sensor_type;location;lat;lon;timestamp;P1;durP1;ratioP1;P2;durP2;ratioP2
15858;SDS011;8029;52.202;7.308;2023-03-21T00:02:07;6.50;;;4.63;;
15858;SDS011;8029;52.202;7.308;2023-03-21T00:04:33;5.78;;;4.32;;
15858;SDS011;8029;52.202;7.308;2023-03-21T00:06:59;5.85;;;4.30;;
15858;SDS011;8029;52.202;7.308;2023-03-21T00:09:25;5.85;;;4.28;;
15858;SDS011;8029;52.202;7.308;2023-03-21T00:11:51;5.43;;;4.30;;
15858;SDS011;8029;52.202;7.308;2023-03-21T00:14:17;13.23;;;5.82;;
15858;SDS011;8029;52.202;7.308;2023-03-21T00:16:44;8.05;;;5.05;;
15858;SDS011;8029;52.202;7.308;2023-03-21T00:19:14;10.27;;;5.88;;
15858;SDS011;8029;52.202;7.308;2023-03-21T00:21:40;8.55;;;5.57;;
15858;SDS011;8029;52.202;7.308;2023-03-21T00:24:07;5.30;;;4.80;;
15858;SDS011;8029;52.202;7.308;2023-03-21T00:26:33;7.70;;;5.07;;
15858;SDS011;8029;52.202;7.308;2023-03-21T00:28:59;6.15;;;4.72;;
15858;SDS011;8029;52.202;7.308;2023-03-21T00:31:26;7.20;;;4.97;;
15858;SDS011;8029;52.202;7.308;2023-03-21T00:33:52;7.32;;;4.03;;
15858;SDS011;8029;52.202;7.308;2023-03-21T00:36:18;5.90;;;5.28;;
15858;SDS011;8029;52.202;7.308;2023-03-21T00:38:45;7.45;;;4.30;;
15858;SDS011;8029;52.202;7.308;2023-03-21T00:41:11;9.20;;;5.00;;
15858;SDS011;8029;52.202;7.308;2023-03-21T00:43:41;5.88;;;4.85;;
15858;SDS011;8029;52.202;7.308;2023-03-21T00:46:07;6.30;;;4.90;;
15858;SDS011;8029;52.202;7.308;2023-03-21T00:48:33;8.23;;;4.97;;
15858;SDS011;8029;52.202;7.308;2023-03-21T00:50:59;5.35;;;4.43;;
15858;SDS011;8029;52.202;7.308;2023-03-21T00:53:26;9.55;;;5.07;;
15858;SDS011;8029;52.202;7.308;2023-03-21T00:55:52;5.78;;;4.50;;
15858;SDS011;8029;52.202;7.308;2023-03-21T00:58:21;6.18;;;4.75;;
15858;SDS011;8029;52.202;7.308;2023-03-21T01:00:47;8.77;;;5.13;;
15858;SDS011;8029;52.202;7.308;2023-03-21T01:03:14;5.15;;;4.20;;
15858;SDS011;8029;52.202;7.308;2023-03-21T01:05:44;8.20;;;5.70;;
15858;SDS011;8029;52.202;7.308;2023-03-21T01:08:31;8.50;;;5.10;;
15858;SDS011;8029;52.202;7.308;2023-03-21T01:11:00;6.20;;;4.53;;
15858;SDS011;8029;52.202;7.308;2023-03-21T01:13:26;6.88;;;4.32;;
15858;SDS011;8029;52.202;7.308;2023-03-21T01:15:53;9.85;;;5.78;;
15858;SDS011;8029;52.202;7.308;2023-03-21T01:18:21;7.70;;;5.68;;
15858;SDS011;8029;52.202;7.308;2023-03-21T01:20:49;10.48;;;6.05;;
15858;SDS011;8029;52.202;7.308;2023-03-21T01:23:15;6.32;;;4.68;;
15858;SDS011;8029;52.202;7.308;2023-03-21T01:25:42;6.60;;;5.18;;
15858;SDS011;8029;52.202;7.308;2023-03-21T01:28:08;7.43;;;5.28;;
15858;SDS011;8029;52.202;7.308;2023-03-21T01:30:35;11.80;;;6.72;;
15858;SDS011;8029;52.202;7.308;2023-03-21T01:33:01;7.72;;;5.10;;
15858;SDS011;8029;52.202;7.308;2023-03-21T01:35:27;5.75;;;4.82;;
15858;SDS011;8029;52.202;7.308;2023-03-21T01:37:53;8.50;;;5.65;;
15858;SDS011;8029;52.202;7.308;2023-03-21T01:40:21;12.63;;;7.53;;
15858;SDS011;8029;52.202;7.308;2023-03-21T01:42:47;12.50;;;6.18;;
15858;SDS011;8029;52.202;7.308;2023-03-21T01:47:58;6.07;;;5.35;;
15858;SDS011;8029;52.202;7.308;2023-03-21T01:50:24;7.88;;;5.18;;
15858;SDS011;8029;52.202;7.308;2023-03-21T01:52:51;9.07;;;5.53;;
15858;SDS011;8029;52.202;7.308;2023-03-21T01:55:17;7.20;;;5.28;;
15858;SDS011;8029;52.202;7.308;2023-03-21T01:57:48;8.73;;;6.07;;
15858;SDS011;8029;52.202;7.308;2023-03-21T02:00:17;9.63;;;6.88;;
15858;SDS011;8029;52.202;7.308;2023-03-21T02:02:45;16.60;;;6.90;;
15858;SDS011;8029;52.202;7.308;2023-03-21T02:05:35;6.60;;;5.05;;
15858;SDS011;8029;52.202;7.308;2023-03-21T02:08:03;6.85;;;5.20;;
15858;SDS011;8029;52.202;7.308;2023-03-21T02:10:30;10.43;;;6.05;;
15858;SDS011;8029;52.202;7.308;2023-03-21T02:12:57;13.55;;;5.32;;
15858;SDS011;8029;52.202;7.308;2023-03-21T02:15:32;8.85;;;5.35;;
15858;SDS011;8029;52.202;7.308;2023-03-21T02:18:07;9.57;;;5.57;;
15858;SDS011;8029;52.202;7.308;2023-03-21T02:30:48;5.13;;;4.50;;
15858;SDS011;8029;52.202;7.308;2023-03-21T02:33:40;11.20;;;6.43;;
15858;SDS011;8029;52.202;7.308;2023-03-21T02:38:40;6.40;;;5.53;;
15858;SDS011;8029;52.202;7.308;2023-03-21T02:43:38;15.18;;;5.45;;
15858;SDS011;8029;52.202;7.308;2023-03-21T02:46:07;20.05;;;6.72;;
15858;SDS011;8029;52.202;7.308;2023-03-21T02:48:35;11.45;;;6.10;;
15858;SDS011;8029;52.202;7.308;2023-03-21T02:51:03;20.52;;;6.45;;
15858;SDS011;8029;52.202;7.308;2023-03-21T02:53:33;10.68;;;6.60;;
15858;SDS011;8029;52.202;7.308;2023-03-21T02:56:01;6.68;;;6.07;;
15858;SDS011;8029;52.202;7.308;2023-03-21T02:58:28;7.63;;;5.18;;
15858;SDS011;8029;52.202;7.308;2023-03-21T03:00:55;7.65;;;5.25;;
15858;SDS011;8029;52.202;7.308;2023-03-21T03:03:22;7.25;;;4.93;;
15858;SDS011;8029;52.202;7.308;2023-03-21T03:05:49;8.32;;;6.60;;
15858;SDS011;8029;52.202;7.308;2023-03-21T03:10:46;8.05;;;6.15;;
15858;SDS011;8029;52.202;7.308;2023-03-21T03:13:23;5.75;;;5.15;;
15858;SDS011;8029;52.202;7.308;2023-03-21T03:16:02;6.90;;;5.78;;
15858;SDS011;8029;52.202;7.308;2023-03-21T03:18:47;12.32;;;7.18;;
15858;SDS011;8029;52.202;7.308;2023-03-21T03:21:21;6.22;;;5.57;;
15858;SDS011;8029;52.202;7.308;2023-03-21T03:23:52;7.40;;;5.43;;
15858;SDS011;8029;52.202;7.308;2023-03-21T03:28:52;8.90;;;6.60;;
15858;SDS011;8029;52.202;7.308;2023-03-21T03:31:21;8.68;;;6.18;;
15858;SDS011;8029;52.202;7.308;2023-03-21T03:33:49;21.42;;;6.75;;
15858;SDS011;8029;52.202;7.308;2023-03-21T03:36:17;7.80;;;5.78;;
15858;SDS011;8029;52.202;7.308;2023-03-21T03:38:45;13.35;;;5.82;;
15858;SDS011;8029;52.202;7.308;2023-03-21T03:41:16;8.20;;;6.15;;
15858;SDS011;8029;52.202;7.308;2023-03-21T03:43:47;7.47;;;5.20;;
15858;SDS011;8029;52.202;7.308;2023-03-21T03:46:22;12.80;;;5.90;;
15858;SDS011;8029;52.202;7.308;2023-03-21T03:48:53;10.95;;;6.35;;
15858;SDS011;8029;52.202;7.308;2023-03-21T03:51:21;17.30;;;6.40;;
15858;SDS011;8029;52.202;7.308;2023-03-21T03:54:11;9.80;;;6.00;;
15858;SDS011;8029;52.202;7.308;2023-03-21T03:56:35;9.82;;;5.88;;
15858;SDS011;8029;52.202;7.308;2023-03-21T03:59:03;7.00;;;5.95;;
15858;SDS011;8029;52.202;7.308;2023-03-21T04:01:29;10.88;;;6.20;;
15858;SDS011;8029;52.202;7.308;2023-03-21T04:03:55;8.75;;;6.05;;
15858;SDS011;8029;52.202;7.308;2023-03-21T04:06:21;7.47;;;6.05;;
15858;SDS011;8029;52.202;7.308;2023-03-21T04:08:48;17.63;;;7.50;;
15858;SDS011;8029;52.202;7.308;2023-03-21T04:11:15;10.95;;;7.47;;
15858;SDS011;8029;52.202;7.308;2023-03-21T04:13:41;14.45;;;6.75;;
15858;SDS011;8029;52.202;7.308;2023-03-21T04:16:07;9.15;;;6.18;;
15858;SDS011;8029;52.202;7.308;2023-03-21T04:18:35;12.15;;;6.63;;
15858;SDS011;8029;52.202;7.308;2023-03-21T04:21:05;8.73;;;6.40;;
15858;SDS011;8029;52.202;7.308;2023-03-21T04:23:32;9.45;;;6.00;;
15858;SDS011;8029;52.202;7.308;2023-03-21T04:25:59;7.35;;;5.40;;
15858;SDS011;8029;52.202;7.308;2023-03-21T04:28:25;7.10;;;5.63;;
15858;SDS011;8029;52.202;7.308;2023-03-21T04:30:51;7.93;;;6.05;;
15858;SDS011;8029;52.202;7.308;2023-03-21T04:33:17;7.22;;;5.22;;
15858;SDS011;8029;52.202;7.308;2023-03-21T04:35:43;8.57;;;6.32;;
15858;SDS011;8029;52.202;7.308;2023-03-21T04:38:10;6.18;;;5.25;;
15858;SDS011;8029;52.202;7.308;2023-03-21T04:40:36;6.40;;;4.95;;
15858;SDS011;8029;52.202;7.308;2023-03-21T04:43:02;6.85;;;6.03;;
15858;SDS011;8029;52.202;7.308;2023-03-21T04:45:28;9.30;;;5.38;;
15858;SDS011;8029;52.202;7.308;2023-03-21T04:47:54;7.38;;;4.70;;
15858;SDS011;8029;52.202;7.308;2023-03-21T04:50:21;5.97;;;4.88;;
15858;SDS011;8029;52.202;7.308;2023-03-21T04:52:47;9.52;;;5.75;;
15858;SDS011;8029;52.202;7.308;2023-03-21T04:55:13;6.28;;;5.30;;
15858;SDS011;8029;52.202;7.308;2023-03-21T04:57:39;10.73;;;5.63;;
15858;SDS011;8029;52.202;7.308;2023-03-21T05:00:06;5.80;;;4.90;;
15858;SDS011;8029;52.202;7.308;2023-03-21T05:02:39;5.72;;;4.63;;
15858;SDS011;8029;52.202;7.308;2023-03-21T05:05:05;8.80;;;5.15;;
15858;SDS011;8029;52.202;7.308;2023-03-21T05:07:35;11.35;;;5.78;;
15858;SDS011;8029;52.202;7.308;2023-03-21T05:10:00;9.07;;;5.00;;
15858;SDS011;8029;52.202;7.308;2023-03-21T05:12:27;6.43;;;4.95;;
15858;SDS011;8029;52.202;7.308;2023-03-21T05:14:53;6.25;;;4.45;;
15858;SDS011;8029;52.202;7.308;2023-03-21T05:17:19;20.80;;;5.05;;
15858;SDS011;8029;52.202;7.308;2023-03-21T05:19:47;12.30;;;4.78;;
15858;SDS011;8029;52.202;7.308;2023-03-21T05:22:14;7.32;;;5.10;;
15858;SDS011;8029;52.202;7.308;2023-03-21T05:24:43;5.60;;;4.07;;
15858;SDS011;8029;52.202;7.308;2023-03-21T05:27:14;7.82;;;5.50;;
15858;SDS011;8029;52.202;7.308;2023-03-21T05:30:03;8.73;;;4.80;;
15858;SDS011;8029;52.202;7.308;2023-03-21T05:32:29;7.38;;;3.97;;
15858;SDS011;8029;52.202;7.308;2023-03-21T05:34:55;10.40;;;5.22;;
15858;SDS011;8029;52.202;7.308;2023-03-21T05:37:21;6.55;;;5.03;;
15858;SDS011;8029;52.202;7.308;2023-03-21T05:39:47;5.63;;;3.42;;
15858;SDS011;8029;52.202;7.308;2023-03-21T05:42:13;5.00;;;4.50;;
15858;SDS011;8029;52.202;7.308;2023-03-21T05:44:40;6.03;;;4.68;;
15858;SDS011;8029;52.202;7.308;2023-03-21T05:47:06;5.28;;;4.28;;
15858;SDS011;8029;52.202;7.308;2023-03-21T05:49:32;7.70;;;4.43;;
15858;SDS011;8029;52.202;7.308;2023-03-21T05:51:58;7.10;;;4.93;;
15858;SDS011;8029;52.202;7.308;2023-03-21T05:54:24;8.35;;;5.32;;
15858;SDS011;8029;52.202;7.308;2023-03-21T05:56:50;5.32;;;4.53;;
15858;SDS011;8029;52.202;7.308;2023-03-21T05:59:16;7.18;;;4.95;;
15858;SDS011;8029;52.202;7.308;2023-03-21T06:01:42;9.40;;;5.10;;
15858;SDS011;8029;52.202;7.308;2023-03-21T06:04:08;8.27;;;5.63;;
15858;SDS011;8029;52.202;7.308;2023-03-21T06:06:34;7.07;;;5.00;;
15858;SDS011;8029;52.202;7.308;2023-03-21T06:09:00;8.02;;;4.28;;
15858;SDS011;8029;52.202;7.308;2023-03-21T06:11:27;6.05;;;4.93;;
15858;SDS011;8029;52.202;7.308;2023-03-21T06:13:54;6.40;;;4.55;;
15858;SDS011;8029;52.202;7.308;2023-03-21T06:16:19;6.95;;;4.88;;
15858;SDS011;8029;52.202;7.308;2023-03-21T06:18:45;9.10;;;4.90;;
15858;SDS011;8029;52.202;7.308;2023-03-21T06:21:11;7.13;;;4.82;;
15858;SDS011;8029;52.202;7.308;2023-03-21T06:23:37;6.20;;;4.55;;
15858;SDS011;8029;52.202;7.308;2023-03-21T06:26:03;4.00;;;3.38;;
15858;SDS011;8029;52.202;7.308;2023-03-21T06:28:30;6.65;;;4.50;;
15858;SDS011;8029;52.202;7.308;2023-03-21T06:30:56;5.05;;;3.72;;
15858;SDS011;8029;52.202;7.308;2023-03-21T06:33:22;4.50;;;3.65;;
15858;SDS011;8029;52.202;7.308;2023-03-21T06:35:51;8.75;;;4.75;;
15858;SDS011;8029;52.202;7.308;2023-03-21T06:38:17;6.00;;;4.68;;
15858;SDS011;8029;52.202;7.308;2023-03-21T06:40:47;5.07;;;4.57;;
15858;SDS011;8029;52.202;7.308;2023-03-21T06:43:13;7.15;;;4.95;;
15858;SDS011;8029;52.202;7.308;2023-03-21T06:45:40;7.68;;;5.43;;
15858;SDS011;8029;52.202;7.308;2023-03-21T06:48:06;4.90;;;3.88;;
15858;SDS011;8029;52.202;7.308;2023-03-21T06:50:32;7.82;;;5.25;;
15858;SDS011;8029;52.202;7.308;2023-03-21T06:52:58;5.03;;;4.50;;
15858;SDS011;8029;52.202;7.308;2023-03-21T06:55:24;7.03;;;4.70;;
15858;SDS011;8029;52.202;7.308;2023-03-21T06:57:52;7.88;;;5.70;;
15858;SDS011;8029;52.202;7.308;2023-03-21T07:00:19;6.50;;;5.07;;
15858;SDS011;8029;52.202;7.308;2023-03-21T07:02:45;6.43;;;5.13;;
15858;SDS011;8029;52.202;7.308;2023-03-21T07:05:11;12.25;;;5.38;;
15858;SDS011;8029;52.202;7.308;2023-03-21T07:07:37;7.88;;;4.15;;
15858;SDS011;8029;52.202;7.308;2023-03-21T07:10:04;5.95;;;4.70;;
15858;SDS011;8029;52.202;7.308;2023-03-21T07:12:30;5.57;;;4.88;;
15858;SDS011;8029;52.202;7.308;2023-03-21T07:15:01;6.15;;;4.75;;
15858;SDS011;8029;52.202;7.308;2023-03-21T07:17:28;8.50;;;5.22;;
15858;SDS011;8029;52.202;7.308;2023-03-21T07:19:54;6.47;;;4.93;;
15858;SDS011;8029;52.202;7.308;2023-03-21T07:22:20;16.23;;;5.22;;
15858;SDS011;8029;52.202;7.308;2023-03-21T07:24:46;7.70;;;5.22;;
15858;SDS011;8029;52.202;7.308;2023-03-21T07:27:12;9.25;;;5.63;;
15858;SDS011;8029;52.202;7.308;2023-03-21T07:29:38;7.10;;;4.85;;
15858;SDS011;8029;52.202;7.308;2023-03-21T07:32:05;7.15;;;5.10;;
15858;SDS011;8029;52.202;7.308;2023-03-21T07:34:31;9.75;;;5.10;;
15858;SDS011;8029;52.202;7.308;2023-03-21T07:36:58;9.98;;;5.80;;
15858;SDS011;8029;52.202;7.308;2023-03-21T07:39:24;6.68;;;4.60;;
15858;SDS011;8029;52.202;7.308;2023-03-21T07:41:50;5.57;;;4.63;;
15858;SDS011;8029;52.202;7.308;2023-03-21T07:44:16;4.55;;;4.05;;
15858;SDS011;8029;52.202;7.308;2023-03-21T07:46:42;9.35;;;4.53;;
15858;SDS011;8029;52.202;7.308;2023-03-21T07:49:08;6.60;;;4.55;;
15858;SDS011;8029;52.202;7.308;2023-03-21T07:51:34;6.18;;;5.18;;
15858;SDS011;8029;52.202;7.308;2023-03-21T07:54:00;12.50;;;5.75;;
15858;SDS011;8029;52.202;7.308;2023-03-21T07:56:27;9.35;;;5.55;;
15858;SDS011;8029;52.202;7.308;2023-03-21T07:58:53;9.98;;;4.95;;
15858;SDS011;8029;52.202;7.308;2023-03-21T08:01:19;7.55;;;4.97;;
15858;SDS011;8029;52.202;7.308;2023-03-21T08:03:46;7.45;;;5.60;;
15858;SDS011;8029;52.202;7.308;2023-03-21T08:06:12;6.32;;;4.88;;
15858;SDS011;8029;52.202;7.308;2023-03-21T08:08:39;6.25;;;4.85;;
15858;SDS011;8029;52.202;7.308;2023-03-21T08:11:05;9.40;;;5.38;;
15858;SDS011;8029;52.202;7.308;2023-03-21T08:13:31;7.50;;;6.18;;
15858;SDS011;8029;52.202;7.308;2023-03-21T08:15:57;5.68;;;4.43;;
15858;SDS011;8029;52.202;7.308;2023-03-21T08:18:23;5.55;;;4.30;;
15858;SDS011;8029;52.202;7.308;2023-03-21T08:20:53;8.85;;;6.10;;
15858;SDS011;8029;52.202;7.308;2023-03-21T08:23:20;7.95;;;5.20;;
15858;SDS011;8029;52.202;7.308;2023-03-21T08:25:49;9.02;;;5.07;;
15858;SDS011;8029;52.202;7.308;2023-03-21T08:28:15;15.23;;;5.97;;
15858;SDS011;8029;52.202;7.308;2023-03-21T08:30:41;5.68;;;4.72;;
15858;SDS011;8029;52.202;7.308;2023-03-21T08:33:07;8.77;;;5.03;;
15858;SDS011;8029;52.202;7.308;2023-03-21T08:35:34;6.15;;;5.03;;
15858;SDS011;8029;52.202;7.308;2023-03-21T08:38:03;6.00;;;5.07;;
15858;SDS011;8029;52.202;7.308;2023-03-21T08:40:29;5.03;;;4.07;;
15858;SDS011;8029;52.202;7.308;2023-03-21T08:42:55;6.82;;;5.22;;
15858;SDS011;8029;52.202;7.308;2023-03-21T08:45:21;11.00;;;5.60;;
15858;SDS011;8029;52.202;7.308;2023-03-21T08:47:48;5.20;;;4.68;;
15858;SDS011;8029;52.202;7.308;2023-03-21T08:50:15;9.18;;;5.75;;
15858;SDS011;8029;52.202;7.308;2023-03-21T08:52:41;4.95;;;4.40;;
15858;SDS011;8029;52.202;7.308;2023-03-21T08:55:08;4.93;;;4.32;;
15858;SDS011;8029;52.202;7.308;2023-03-21T08:57:34;5.13;;;4.63;;
15858;SDS011;8029;52.202;7.308;2023-03-21T09:00:00;9.10;;;5.45;;
15858;SDS011;8029;52.202;7.308;2023-03-21T09:02:31;13.13;;;5.07;;
15858;SDS011;8029;52.202;7.308;2023-03-21T09:04:57;6.30;;;5.00;;
15858;SDS011;8029;52.202;7.308;2023-03-21T09:07:23;4.85;;;3.88;;
15858;SDS011;8029;52.202;7.308;2023-03-21T09:09:50;4.75;;;4.20;;
15858;SDS011;8029;52.202;7.308;2023-03-21T09:12:17;5.78;;;4.25;;
15858;SDS011;8029;52.202;7.308;2023-03-21T09:14:43;5.25;;;4.43;;
15858;SDS011;8029;52.202;7.308;2023-03-21T09:17:09;4.90;;;3.95;;
15858;SDS011;8029;52.202;7.308;2023-03-21T09:19:35;7.43;;;5.18;;
15858;SDS011;8029;52.202;7.308;2023-03-21T09:22:02;5.53;;;3.75;;
15858;SDS011;8029;52.202;7.308;2023-03-21T09:24:28;7.97;;;4.30;;
15858;SDS011;8029;52.202;7.308;2023-03-21T09:26:55;4.85;;;4.10;;
15858;SDS011;8029;52.202;7.308;2023-03-21T09:29:21;10.13;;;5.35;;
15858;SDS011;8029;52.202;7.308;2023-03-21T09:31:47;11.48;;;7.00;;
15858;SDS011;8029;52.202;7.308;2023-03-21T09:34:13;8.70;;;3.65;;
15858;SDS011;8029;52.202;7.308;2023-03-21T09:36:40;9.85;;;6.90;;
15858;SDS011;8029;52.202;7.308;2023-03-21T09:39:08;6.40;;;4.63;;
15858;SDS011;8029;52.202;7.308;2023-03-21T09:49:03;7.20;;;5.03;;
15858;SDS011;8029;52.202;7.308;2023-03-21T09:51:34;5.50;;;4.15;;
15858;SDS011;8029;52.202;7.308;2023-03-21T09:54:03;6.55;;;4.53;;
15858;SDS011;8029;52.202;7.308;2023-03-21T09:56:31;3.92;;;3.53;;
15858;SDS011;8029;52.202;7.308;2023-03-21T09:58:58;5.90;;;3.95;;
15858;SDS011;8029;52.202;7.308;2023-03-21T10:01:26;7.43;;;4.28;;
15858;SDS011;8029;52.202;7.308;2023-03-21T10:03:54;8.32;;;3.97;;
15858;SDS011;8029;52.202;7.308;2023-03-21T10:06:21;6.07;;;3.85;;
15858;SDS011;8029;52.202;7.308;2023-03-21T10:08:52;6.07;;;4.85;;
15858;SDS011;8029;52.202;7.308;2023-03-21T10:11:27;5.30;;;3.58;;
15858;SDS011;8029;52.202;7.308;2023-03-21T10:13:58;4.78;;;4.15;;
15858;SDS011;8029;52.202;7.308;2023-03-21T10:16:27;7.78;;;4.63;;
15858;SDS011;8029;52.202;7.308;2023-03-21T10:18:54;6.88;;;5.05;;
15858;SDS011;8029;52.202;7.308;2023-03-21T10:21:21;5.18;;;4.18;;
15858;SDS011;8029;52.202;7.308;2023-03-21T10:23:48;5.95;;;4.05;;
15858;SDS011;8029;52.202;7.308;2023-03-21T10:26:15;5.35;;;3.58;;
15858;SDS011;8029;52.202;7.308;2023-03-21T10:28:42;4.57;;;3.83;;
15858;SDS011;8029;52.202;7.308;2023-03-21T10:31:12;4.80;;;3.53;;
15858;SDS011;8029;52.202;7.308;2023-03-21T10:33:41;5.30;;;3.53;;
15858;SDS011;8029;52.202;7.308;2023-03-21T10:36:15;4.70;;;3.88;;
15858;SDS011;8029;52.202;7.308;2023-03-21T10:38:46;5.38;;;3.38;;
15858;SDS011;8029;52.202;7.308;2023-03-21T10:41:12;2.67;;;2.47;;
15858;SDS011;8029;52.202;7.308;2023-03-21T10:43:41;5.47;;;3.90;;
15858;SDS011;8029;52.202;7.308;2023-03-21T10:46:16;4.43;;;3.80;;
15858;SDS011;8029;52.202;7.308;2023-03-21T10:48:43;3.92;;;3.50;;
15858;SDS011;8029;52.202;7.308;2023-03-21T10:51:16;5.20;;;3.63;;
15858;SDS011;8029;52.202;7.308;2023-03-21T10:53:44;5.10;;;4.10;;
15858;SDS011;8029;52.202;7.308;2023-03-21T10:56:12;4.80;;;3.47;;
15858;SDS011;8029;52.202;7.308;2023-03-21T10:58:40;4.55;;;3.80;;
15858;SDS011;8029;52.202;7.308;2023-03-21T11:01:08;4.18;;;3.45;;
15858;SDS011;8029;52.202;7.308;2023-03-21T11:03:39;4.45;;;3.45;;
15858;SDS011;8029;52.202;7.308;2023-03-21T11:08:57;4.47;;;2.80;;
15858;SDS011;8029;52.202;7.308;2023-03-21T11:11:26;3.03;;;2.72;;
15858;SDS011;8029;52.202;7.308;2023-03-21T11:13:56;7.40;;;3.58;;
15858;SDS011;8029;52.202;7.308;2023-03-21T11:16:24;3.83;;;3.47;;
15858;SDS011;8029;52.202;7.308;2023-03-21T11:18:51;5.38;;;3.55;;
15858;SDS011;8029;52.202;7.308;2023-03-21T11:21:17;3.05;;;2.75;;
15858;SDS011;8029;52.202;7.308;2023-03-21T11:23:46;8.77;;;4.03;;
15858;SDS011;8029;52.202;7.308;2023-03-21T11:26:20;3.58;;;3.28;;
15858;SDS011;8029;52.202;7.308;2023-03-21T11:28:50;4.38;;;3.15;;
15858;SDS011;8029;52.202;7.308;2023-03-21T11:31:16;7.57;;;4.20;;
15858;SDS011;8029;52.202;7.308;2023-03-21T11:33:45;7.45;;;4.28;;
15858;SDS011;8029;52.202;7.308;2023-03-21T11:38:52;6.88;;;4.88;;
15858;SDS011;8029;52.202;7.308;2023-03-21T11:41:23;4.65;;;4.15;;
15858;SDS011;8029;52.202;7.308;2023-03-21T11:43:50;8.50;;;5.07;;
15858;SDS011;8029;52.202;7.308;2023-03-21T11:46:21;7.80;;;4.18;;
15858;SDS011;8029;52.202;7.308;2023-03-21T11:48:47;6.63;;;5.15;;
15858;SDS011;8029;52.202;7.308;2023-03-21T11:51:18;9.35;;;5.05;;
15858;SDS011;8029;52.202;7.308;2023-03-21T11:53:54;5.57;;;4.60;;
15858;SDS011;8029;52.202;7.308;2023-03-21T11:56:25;6.05;;;4.82;;
15858;SDS011;8029;52.202;7.308;2023-03-21T12:04:34;11.75;;;6.10;;
15858;SDS011;8029;52.202;7.308;2023-03-21T12:18:02;8.45;;;7.55;;
15858;SDS011;8029;52.202;7.308;2023-03-21T12:20:41;17.65;;;9.80;;
15858;SDS011;8029;52.202;7.308;2023-03-21T12:25:43;8.98;;;8.13;;
15858;SDS011;8029;52.202;7.308;2023-03-21T12:41:33;6.00;;;5.07;;
15858;SDS011;8029;52.202;7.308;2023-03-21T12:44:16;10.13;;;5.70;;
15858;SDS011;8029;52.202;7.308;2023-03-21T12:49:17;5.38;;;4.65;;
15858;SDS011;8029;52.202;7.308;2023-03-21T12:51:48;4.68;;;4.07;;
15858;SDS011;8029;52.202;7.308;2023-03-21T12:54:20;7.35;;;4.57;;
15858;SDS011;8029;52.202;7.308;2023-03-21T12:56:51;6.60;;;4.25;;
15858;SDS011;8029;52.202;7.308;2023-03-21T12:59:21;4.13;;;3.72;;
15858;SDS011;8029;52.202;7.308;2023-03-21T13:01:48;4.18;;;3.75;;
15858;SDS011;8029;52.202;7.308;2023-03-21T13:04:20;6.95;;;3.72;;
15858;SDS011;8029;52.202;7.308;2023-03-21T13:06:50;4.32;;;3.63;;
15858;SDS011;8029;52.202;7.308;2023-03-21T13:09:30;6.40;;;4.38;;
15858;SDS011;8029;52.202;7.308;2023-03-21T13:11:58;4.80;;;4.28;;
15858;SDS011;8029;52.202;7.308;2023-03-21T13:14:31;4.78;;;3.95;;
15858;SDS011;8029;52.202;7.308;2023-03-21T13:17:33;8.77;;;3.83;;
15858;SDS011;8029;52.202;7.308;2023-03-21T13:20:40;5.13;;;4.05;;
15858;SDS011;8029;52.202;7.308;2023-03-21T13:22:37;5.05;;;3.75;;
15858;SDS011;8029;52.202;7.308;2023-03-21T13:25:04;4.45;;;3.72;;
15858;SDS011;8029;52.202;7.308;2023-03-21T13:27:35;5.18;;;2.95;;
15858;SDS011;8029;52.202;7.308;2023-03-21T13:30:17;3.00;;;2.47;;
15858;SDS011;8029;52.202;7.308;2023-03-21T13:32:44;5.57;;;2.65;;
15858;SDS011;8029;52.202;7.308;2023-03-21T13:35:15;5.47;;;3.22;;
15858;SDS011;8029;52.202;7.308;2023-03-21T13:37:42;7.55;;;3.60;;
15858;SDS011;8029;52.202;7.308;2023-03-21T13:40:21;3.65;;;2.58;;
15858;SDS011;8029;52.202;7.308;2023-03-21T13:42:51;2.47;;;2.28;;
15858;SDS011;8029;52.202;7.308;2023-03-21T13:45:22;6.65;;;4.05;;
15858;SDS011;8029;52.202;7.308;2023-03-21T13:47:50;4.00;;;3.08;;
15858;SDS011;8029;52.202;7.308;2023-03-21T13:55:29;2.53;;;2.33;;
15858;SDS011;8029;52.202;7.308;2023-03-21T13:57:55;3.35;;;2.58;;
15858;SDS011;8029;52.202;7.308;2023-03-21T14:00:26;3.35;;;2.63;;
15858;SDS011;8029;52.202;7.308;2023-03-21T14:02:55;2.65;;;2.45;;
15858;SDS011;8029;52.202;7.308;2023-03-21T14:05:22;4.35;;;3.03;;
15858;SDS011;8029;52.202;7.308;2023-03-21T14:07:50;5.95;;;3.53;;
15858;SDS011;8029;52.202;7.308;2023-03-21T14:10:27;4.25;;;2.78;;
15858;SDS011;8029;52.202;7.308;2023-03-21T14:12:54;5.32;;;2.60;;
15858;SDS011;8029;52.202;7.308;2023-03-21T14:15:24;7.35;;;3.15;;
15858;SDS011;8029;52.202;7.308;2023-03-21T14:22:47;5.20;;;2.78;;
15858;SDS011;8029;52.202;7.308;2023-03-21T14:25:14;2.15;;;2.03;;
15858;SDS011;8029;52.202;7.308;2023-03-21T14:27:42;15.63;;;3.30;;
15858;SDS011;8029;52.202;7.308;2023-03-21T14:30:10;6.57;;;3.33;;
15858;SDS011;8029;52.202;7.308;2023-03-21T14:32:43;3.85;;;2.80;;
15858;SDS011;8029;52.202;7.308;2023-03-21T14:35:11;4.22;;;2.10;;
15858;SDS011;8029;52.202;7.308;2023-03-21T14:37:39;3.88;;;2.55;;
15858;SDS011;8029;52.202;7.308;2023-03-21T14:40:07;2.15;;;1.95;;
15858;SDS011;8029;52.202;7.308;2023-03-21T14:42:44;3.35;;;3.03;;
15858;SDS011;8029;52.202;7.308;2023-03-21T14:45:15;3.80;;;2.58;;
15858;SDS011;8029;52.202;7.308;2023-03-21T14:47:45;2.50;;;2.10;;
15858;SDS011;8029;52.202;7.308;2023-03-21T14:50:18;2.85;;;2.00;;
15858;SDS011;8029;52.202;7.308;2023-03-21T14:52:47;2.13;;;2.03;;
15858;SDS011;8029;52.202;7.308;2023-03-21T14:55:14;3.65;;;2.42;;
15858;SDS011;8029;52.202;7.308;2023-03-21T14:57:40;2.20;;;1.92;;
15858;SDS011;8029;52.202;7.308;2023-03-21T15:00:07;2.38;;;2.17;;
15858;SDS011;8029;52.202;7.308;2023-03-21T15:02:40;2.25;;;2.05;;
15858;SDS011;8029;52.202;7.308;2023-03-21T15:05:09;2.30;;;2.10;;
15858;SDS011;8029;52.202;7.308;2023-03-21T15:07:35;3.72;;;2.80;;
15858;SDS011;8029;52.202;7.308;2023-03-21T15:10:03;4.30;;;2.65;;
15858;SDS011;8029;52.202;7.308;2023-03-21T15:12:29;3.95;;;2.20;;
15858;SDS011;8029;52.202;7.308;2023-03-21T15:14:55;2.55;;;1.80;;
15858;SDS011;8029;52.202;7.308;2023-03-21T15:17:21;1.88;;;1.75;;
15858;SDS011;8029;52.202;7.308;2023-03-21T15:19:49;2.92;;;2.20;;
15858;SDS011;8029;52.202;7.308;2023-03-21T15:22:37;3.75;;;2.83;;
15858;SDS011;8029;52.202;7.308;2023-03-21T15:25:02;2.35;;;2.15;;
15858;SDS011;8029;52.202;7.308;2023-03-21T15:27:30;5.00;;;3.05;;
15858;SDS011;8029;52.202;7.308;2023-03-21T15:29:57;2.45;;;2.17;;
15858;SDS011;8029;52.202;7.308;2023-03-21T15:32:24;4.55;;;2.47;;
15858;SDS011;8029;52.202;7.308;2023-03-21T15:34:51;2.60;;;2.08;;
15858;SDS011;8029;52.202;7.308;2023-03-21T15:37:23;3.55;;;2.28;;
15858;SDS011;8029;52.202;7.308;2023-03-21T15:39:50;3.97;;;2.13;;
15858;SDS011;8029;52.202;7.308;2023-03-21T15:42:31;1.55;;;1.42;;
15858;SDS011;8029;52.202;7.308;2023-03-21T15:45:00;3.85;;;2.80;;
15858;SDS011;8029;52.202;7.308;2023-03-21T15:47:49;5.90;;;2.28;;
15858;SDS011;8029;52.202;7.308;2023-03-21T15:50:37;2.72;;;2.53;;
15858;SDS011;8029;52.202;7.308;2023-03-21T15:53:03;3.13;;;1.90;;
15858;SDS011;8029;52.202;7.308;2023-03-21T15:56:04;2.92;;;2.30;;
15858;SDS011;8029;52.202;7.308;2023-03-21T15:58:27;2.45;;;2.25;;
15858;SDS011;8029;52.202;7.308;2023-03-21T16:00:59;2.85;;;2.22;;
15858;SDS011;8029;52.202;7.308;2023-03-21T16:03:27;2.30;;;1.90;;
15858;SDS011;8029;52.202;7.308;2023-03-21T16:06:05;6.80;;;2.35;;
15858;SDS011;8029;52.202;7.308;2023-03-21T16:08:33;2.50;;;2.30;;
15858;SDS011;8029;52.202;7.308;2023-03-21T16:11:06;2.47;;;2.28;;
15858;SDS011;8029;52.202;7.308;2023-03-21T16:13:33;2.92;;;2.17;;
15858;SDS011;8029;52.202;7.308;2023-03-21T16:15:59;2.60;;;2.08;;
15858;SDS011;8029;52.202;7.308;2023-03-21T16:18:25;2.80;;;2.03;;
15858;SDS011;8029;52.202;7.308;2023-03-21T16:20:51;4.85;;;2.97;;
15858;SDS011;8029;52.202;7.308;2023-03-21T16:23:17;5.93;;;2.80;;
15858;SDS011;8029;52.202;7.308;2023-03-21T16:25:43;7.20;;;3.35;;
15858;SDS011;8029;52.202;7.308;2023-03-21T16:28:20;3.58;;;2.70;;
15858;SDS011;8029;52.202;7.308;2023-03-21T16:30:46;3.83;;;2.58;;